createdAt,value
2023-02-08T17:47:08.468Z,67.43
2023-02-08T17:49:36.185Z,65.03
2023-02-08T17:52:03.891Z,63.65
2023-02-08T17:54:31.545Z,62.56
2023-02-08T17:56:59.811Z,61.85
2023-02-08T17:59:27.535Z,62.33
2023-02-08T18:01:55.316Z,62.14
2023-02-08T18:04:24.401Z,61.10
2023-02-08T18:06:52.206Z,60.80
2023-02-08T18:09:19.984Z,59.70
2023-02-08T18:11:47.671Z,58.57
2023-02-08T18:14:15.420Z,59.92
2023-02-08T18:16:43.218Z,60.32
2023-02-08T18:19:10.913Z,60.54
2023-02-08T18:21:39.975Z,60.52
2023-02-08T18:24:07.927Z,59.84
2023-02-08T18:26:35.811Z,59.90
2023-02-08T18:29:04.457Z,59.51
2023-02-08T18:31:32.969Z,59.22
2023-02-08T18:34:01.524Z,59.00
2023-02-08T18:36:29.238Z,60.29
2023-02-08T18:38:58.388Z,59.02
2023-02-08T18:41:28.011Z,59.79
2023-02-08T18:43:57.122Z,59.13
2023-02-08T18:46:26.283Z,59.59
2023-02-08T18:48:54.828Z,58.71
2023-02-08T18:51:23.993Z,59.83
2023-02-08T18:53:53.714Z,59.15
2023-02-08T18:56:25.220Z,59.30
2023-02-08T18:58:53.085Z,59.98
2023-02-08T19:01:22.675Z,59.92
2023-02-08T19:03:51.751Z,60.77
2023-02-08T19:06:22.524Z,60.12
2023-02-08T19:08:51.600Z,60.92
2023-02-08T19:11:22.437Z,60.45
2023-02-08T19:13:50.368Z,60.43
2023-02-08T19:16:19.404Z,60.51
2023-02-08T19:18:48.132Z,60.59
2023-02-08T19:21:17.568Z,60.48
2023-02-08T19:23:46.700Z,60.77
2023-02-08T19:26:17.613Z,60.69
2023-02-08T19:28:46.742Z,61.31
2023-02-08T19:31:17.293Z,61.06
2023-02-08T19:33:46.837Z,60.52
2023-02-08T19:36:16.294Z,61.00
2023-02-08T19:38:44.231Z,60.01
2023-02-08T19:41:16.720Z,60.56
2023-02-08T19:43:45.957Z,60.78
2023-02-08T19:46:15.920Z,61.15
2023-02-08T19:48:43.985Z,61.79
2023-02-08T19:51:11.674Z,61.13
2023-02-08T19:53:39.400Z,61.93
2023-02-08T19:56:08.863Z,62.27
2023-02-08T19:58:37.311Z,61.74
2023-02-08T20:01:08.673Z,61.99
2023-02-08T20:03:36.416Z,62.42
2023-02-08T20:06:04.384Z,61.02
2023-02-08T20:08:32.764Z,61.17
2023-02-08T20:11:00.461Z,61.05
2023-02-08T20:13:28.558Z,60.70
2023-02-08T20:15:59.756Z,60.78
2023-02-08T20:18:28.984Z,61.33
2023-02-08T20:21:01.238Z,61.89
2023-02-08T20:23:29.158Z,61.55
2023-02-08T20:26:10.950Z,61.91
2023-02-08T20:28:39.781Z,62.29
2023-02-08T20:31:08.702Z,62.06
2023-02-08T20:33:38.067Z,62.60
2023-02-08T20:36:10.245Z,62.39
2023-02-08T20:38:38.555Z,61.79
2023-02-08T20:41:08.355Z,61.98
2023-02-08T20:43:36.336Z,62.21
2023-02-08T20:46:06.575Z,61.90
2023-02-08T20:48:34.445Z,61.72
2023-02-08T20:51:08.317Z,62.22
2023-02-08T20:53:36.259Z,62.37
2023-02-08T20:56:06.338Z,62.84
2023-02-08T20:58:34.278Z,62.68
2023-02-08T21:01:02.087Z,62.17
2023-02-08T21:03:29.949Z,62.32
2023-02-08T21:05:58.542Z,62.45
2023-02-08T21:08:27.594Z,62.36
2023-02-08T21:10:55.280Z,62.56
2023-02-08T21:13:26.071Z,61.94
2023-02-08T21:15:53.831Z,62.02
2023-02-08T21:18:21.549Z,62.16
2023-02-08T21:20:50.813Z,61.84
2023-02-08T21:23:18.538Z,61.79
2023-02-08T21:25:47.568Z,62.12
2023-02-08T21:28:15.603Z,61.11
2023-02-08T21:30:44.542Z,60.42
2023-02-08T21:33:12.474Z,60.23
2023-02-08T21:35:40.242Z,60.28
2023-02-08T21:38:07.954Z,60.60
2023-02-08T21:40:35.613Z,59.36
2023-02-08T21:43:04.830Z,58.47
2023-02-08T21:45:32.609Z,58.65
2023-02-08T21:48:00.249Z,57.48
2023-02-08T21:50:45.560Z,57.05
2023-02-08T21:53:31.214Z,57.46
2023-02-08T21:55:59.212Z,57.08
2023-02-08T21:58:28.295Z,56.83
2023-02-08T22:00:55.956Z,56.70
2023-02-08T22:03:23.746Z,55.44
2023-02-08T22:05:51.482Z,54.61
2023-02-08T22:08:19.188Z,54.10
2023-02-08T22:10:57.643Z,53.76
2023-02-08T22:13:25.942Z,54.27
2023-02-08T22:15:55.005Z,54.12
2023-02-08T22:18:22.750Z,54.25
2023-02-08T22:20:52.000Z,53.72
2023-02-08T22:23:19.731Z,53.80
2023-02-08T22:25:47.387Z,54.02
2023-02-08T22:28:15.145Z,53.47
2023-02-08T22:30:43.029Z,53.66
2023-02-08T22:33:12.290Z,53.36
2023-02-08T22:35:40.429Z,53.16
2023-02-08T22:38:08.201Z,52.79
2023-02-08T22:40:35.881Z,52.94
2023-02-08T22:43:03.558Z,52.75
2023-02-08T22:45:31.555Z,52.97
2023-02-08T22:47:59.327Z,52.85
2023-02-08T22:50:28.328Z,52.41
2023-02-08T22:52:56.086Z,52.83
2023-02-08T22:55:23.700Z,52.44
2023-02-08T22:57:51.379Z,52.79
2023-02-08T23:00:19.092Z,51.82
2023-02-08T23:02:47.068Z,51.92
2023-02-08T23:05:14.806Z,51.66
2023-02-08T23:07:44.149Z,52.19
2023-02-08T23:10:12.485Z,51.95
2023-02-08T23:12:40.470Z,51.96
2023-02-08T23:15:08.655Z,52.04
2023-02-08T23:17:37.565Z,51.67
2023-02-08T23:20:05.609Z,51.02
2023-02-08T23:22:33.326Z,51.92
2023-02-08T23:25:02.396Z,51.58
2023-02-08T23:27:30.068Z,51.74
2023-02-08T23:29:57.792Z,51.45
2023-02-08T23:32:25.466Z,50.94
